Time;durP1;ratioP1;P1;durP2;ratioP2;P2;SDS_P1;SDS_P2;PMS_P1;PMS_P2;Temp;Humidity;BMP_temperature;BMP_pressure;BME280_temperature;BME280_humidity;BME280_pressure;Samples;Min_cycle;Max_cycle;Signal;HPM_P1;HPM_P2
2024/03/17 00:01:41;;;;;;;29.77;18.97;;;;;;;;;;4337891;32;318705;-70
2024/03/17 00:04:08;;;;;;;32.07;18.43;;;;;;;;;;4323751;32;418607;-70
2024/03/17 00:06:35;;;;;;;33.40;19.77;;;;;;;;;;4337709;32;319640;-70
2024/03/17 00:09:06;;;;;;;41.63;22.10;;;;;;;;;;4325694;32;319317;-71
2024/03/17 00:11:31;;;;;;;34.30;21.17;;;;;;;;;;4337507;32;319451;-73
2024/03/17 00:13:58;;;;;;;34.20;19.33;;;;;;;;;;4328127;32;319405;-70
2024/03/17 00:16:24;;;;;;;31.87;19.73;;;;;;;;;;4338065;32;319328;-70
2024/03/17 00:18:51;;;;;;;44.77;24.13;;;;;;;;;;4326817;32;319470;-72
2024/03/17 00:21:17;;;;;;;38.40;24.67;;;;;;;;;;4335919;32;324783;-71
2024/03/17 00:23:45;;;;;;;33.93;21.77;;;;;;;;;;4324390;32;358109;-70
2024/03/17 00:26:10;;;;;;;27.57;19.50;;;;;;;;;;4337380;32;319587;-73
2024/03/17 00:28:37;;;;;;;19.93;14.03;;;;;;;;;;4337431;32;319149;-70
2024/03/17 00:31:03;;;;;;;27.07;15.40;;;;;;;;;;4311410;32;319666;-70
2024/03/17 00:33:30;;;;;;;29.90;15.80;;;;;;;;;;4337386;32;319291;-72
2024/03/17 00:35:57;;;;;;;28.87;16.57;;;;;;;;;;4326565;32;319408;-71
2024/03/17 00:38:22;;;;;;;29.90;17.13;;;;;;;;;;4337799;32;319564;-70
2024/03/17 00:40:51;;;;;;;33.87;21.03;;;;;;;;;;4328004;32;319960;-70
2024/03/17 00:43:16;;;;;;;37.50;22.33;;;;;;;;;;4337360;32;319566;-70
2024/03/17 00:45:43;;;;;;;37.33;22.93;;;;;;;;;;4327721;32;319484;-70
2024/03/17 00:48:09;;;;;;;45.40;25.90;;;;;;;;;;4336498;32;318586;-70
2024/03/17 00:50:36;;;;;;;43.90;26.40;;;;;;;;;;4335846;32;319568;-72
2024/03/17 00:53:03;;;;;;;43.23;25.03;;;;;;;;;;4323905;32;319595;-72
2024/03/17 00:55:29;;;;;;;35.47;23.87;;;;;;;;;;4337459;32;319609;-70
2024/03/17 00:57:57;;;;;;;41.80;23.67;;;;;;;;;;4327817;32;319575;-71
2024/03/17 01:00:23;;;;;;;33.03;23.00;;;;;;;;;;4337321;32;319693;-70
2024/03/17 01:02:50;;;;;;;36.03;18.37;;;;;;;;;;4327259;32;318828;-71
2024/03/17 01:05:16;;;;;;;24.10;15.53;;;;;;;;;;4333947;32;319396;-70
2024/03/17 01:07:43;;;;;;;23.93;16.40;;;;;;;;;;4326071;32;318631;-71
2024/03/17 01:10:09;;;;;;;22.33;14.63;;;;;;;;;;4337070;32;319761;-71
2024/03/17 01:12:36;;;;;;;25.20;16.07;;;;;;;;;;4337120;32;319522;-70
2024/03/17 01:15:05;;;;;;;25.03;15.40;;;;;;;;;;4324961;32;319600;-70
2024/03/17 01:17:32;;;;;;;35.70;18.63;;;;;;;;;;4334959;32;351555;-71
2024/03/17 01:19:58;;;;;;;27.13;15.17;;;;;;;;;;4327192;32;319657;-70
2024/03/17 01:22:24;;;;;;;37.43;19.57;;;;;;;;;;4336685;32;319652;-70
2024/03/17 01:24:50;;;;;;;39.67;22.90;;;;;;;;;;4325367;32;319574;-71
2024/03/17 01:27:17;;;;;;;33.60;22.33;;;;;;;;;;4337126;32;319971;-71
2024/03/17 01:29:43;;;;;;;22.30;15.03;;;;;;;;;;4324503;32;330015;-70
2024/03/17 01:32:11;;;;;;;22.17;14.43;;;;;;;;;;4336262;32;319472;-70
2024/03/17 01:34:38;;;;;;;28.37;15.77;;;;;;;;;;4337164;32;319540;-70
2024/03/17 01:37:04;;;;;;;36.13;21.50;;;;;;;;;;4311640;32;319873;-70
2024/03/17 01:39:30;;;;;;;38.43;22.00;;;;;;;;;;4337097;32;318807;-71
2024/03/17 01:41:58;;;;;;;26.80;18.70;;;;;;;;;;4327373;32;319491;-70
2024/03/17 01:44:26;;;;;;;28.43;15.23;;;;;;;;;;4335192;32;318950;-71
2024/03/17 01:46:53;;;;;;;21.00;13.17;;;;;;;;;;4325069;32;319150;-71
2024/03/17 01:49:21;;;;;;;19.37;12.53;;;;;;;;;;4335781;32;353109;-70
2024/03/17 01:51:48;;;;;;;20.20;13.60;;;;;;;;;;4320113;32;319673;-73
2024/03/17 01:54:15;;;;;;;23.13;15.43;;;;;;;;;;4335816;32;319518;-71
2024/03/17 01:56:43;;;;;;;21.63;13.87;;;;;;;;;;4326090;32;319576;-70
2024/03/17 01:59:09;;;;;;;24.03;15.77;;;;;;;;;;4334328;32;318850;-70
2024/03/17 02:01:36;;;;;;;23.73;16.63;;;;;;;;;;4335795;32;319348;-70
2024/03/17 02:04:02;;;;;;;29.80;17.33;;;;;;;;;;4326723;32;319778;-70
2024/03/17 02:06:30;;;;;;;29.87;18.57;;;;;;;;;;4337103;32;319535;-70
2024/03/17 02:08:56;;;;;;;31.73;19.77;;;;;;;;;;4323639;32;319601;-71
2024/03/17 02:11:27;;;;;;;36.40;20.13;;;;;;;;;;4335766;32;319373;-70
2024/03/17 02:13:54;;;;;;;35.80;20.63;;;;;;;;;;4326946;32;319546;-70
2024/03/17 02:16:21;;;;;;;37.20;24.13;;;;;;;;;;4337683;32;319867;-70
2024/03/17 02:18:47;;;;;;;55.27;29.23;;;;;;;;;;4329488;32;319559;-71
2024/03/17 02:21:14;;;;;;;48.63;28.00;;;;;;;;;;4336934;32;319431;-72
2024/03/17 02:23:42;;;;;;;43.43;25.93;;;;;;;;;;4335345;32;319713;-71
2024/03/17 02:26:09;;;;;;;46.90;24.77;;;;;;;;;;4339338;32;318662;-72
2024/03/17 02:28:39;;;;;;;35.00;21.73;;;;;;;;;;4337021;32;352357;-71
2024/03/17 02:31:07;;;;;;;31.70;20.33;;;;;;;;;;4325445;32;329819;-70
2024/03/17 02:33:33;;;;;;;30.57;18.17;;;;;;;;;;4338708;32;318797;-73
2024/03/17 02:36:00;;;;;;;27.30;18.20;;;;;;;;;;4328125;32;319283;-71
2024/03/17 02:41:10;;;;;;;27.47;18.07;;;;;;;;;;4300030;32;389353;-70
2024/03/17 02:43:37;;;;;;;26.37;17.27;;;;;;;;;;4339231;32;319942;-71
2024/03/17 02:46:04;;;;;;;33.13;19.57;;;;;;;;;;4329390;32;319388;-70
2024/03/17 02:48:31;;;;;;;32.23;18.13;;;;;;;;;;4337253;32;319459;-71
2024/03/17 02:50:58;;;;;;;29.60;17.90;;;;;;;;;;4325856;32;319385;-70
2024/03/17 02:53:25;;;;;;;32.77;18.17;;;;;;;;;;4336421;32;361125;-70
2024/03/17 02:55:52;;;;;;;33.03;19.13;;;;;;;;;;4328875;32;319534;-70
2024/03/17 02:58:20;;;;;;;28.97;17.77;;;;;;;;;;4338959;32;319373;-72
2024/03/17 03:00:47;;;;;;;32.50;19.80;;;;;;;;;;4329044;32;319331;-71
2024/03/17 03:03:13;;;;;;;32.23;22.23;;;;;;;;;;4336584;32;319642;-73
2024/03/17 03:05:40;;;;;;;31.43;20.43;;;;;;;;;;4337679;32;319415;-70
2024/03/17 03:08:08;;;;;;;31.80;19.93;;;;;;;;;;4325777;32;418451;-70
2024/03/17 03:10:35;;;;;;;27.27;18.37;;;;;;;;;;4338426;32;319325;-71
2024/03/17 03:13:02;;;;;;;27.57;16.60;;;;;;;;;;4307353;32;319519;-70
2024/03/17 03:15:32;;;;;;;36.27;16.93;;;;;;;;;;4338670;32;319666;-70
2024/03/17 03:17:59;;;;;;;27.77;18.07;;;;;;;;;;4327426;32;319464;-71
2024/03/17 03:20:28;;;;;;;30.37;21.03;;;;;;;;;;4337303;32;319688;-71
2024/03/17 03:22:54;;;;;;;34.77;21.63;;;;;;;;;;4326818;32;320004;-70
2024/03/17 03:25:21;;;;;;;35.43;20.67;;;;;;;;;;4337172;32;319880;-70
2024/03/17 03:27:48;;;;;;;28.57;16.97;;;;;;;;;;4326241;32;350014;-70
2024/03/17 03:30:16;;;;;;;31.63;20.27;;;;;;;;;;4338475;32;319505;-70
2024/03/17 03:32:44;;;;;;;33.23;18.23;;;;;;;;;;4320496;32;319751;-71
2024/03/17 03:35:11;;;;;;;25.57;16.97;;;;;;;;;;4334605;32;318928;-71
2024/03/17 03:37:37;;;;;;;34.20;19.23;;;;;;;;;;4338481;32;319379;-72
2024/03/17 03:40:08;;;;;;;32.93;20.00;;;;;;;;;;4328313;32;321828;-70
2024/03/17 03:42:35;;;;;;;41.50;21.57;;;;;;;;;;4338392;32;319222;-71
2024/03/17 03:45:01;;;;;;;38.10;22.13;;;;;;;;;;4325933;32;319524;-70
2024/03/17 03:47:28;;;;;;;35.07;22.17;;;;;;;;;;4336814;32;319368;-73
2024/03/17 03:49:56;;;;;;;39.60;22.30;;;;;;;;;;4328090;32;319818;-72
2024/03/17 03:52:23;;;;;;;31.90;19.90;;;;;;;;;;4338176;32;319635;-70
2024/03/17 03:54:53;;;;;;;35.23;22.30;;;;;;;;;;4326660;32;354730;-70
2024/03/17 03:57:19;;;;;;;35.50;20.57;;;;;;;;;;4338221;32;319602;-70
2024/03/17 03:59:49;;;;;;;37.50;23.07;;;;;;;;;;4326798;32;319826;-70
2024/03/17 04:02:18;;;;;;;51.70;24.37;;;;;;;;;;4337130;32;319574;-70
2024/03/17 04:04:45;;;;;;;37.13;24.43;;;;;;;;;;4328103;32;325672;-70
2024/03/17 04:07:16;;;;;;;41.37;24.03;;;;;;;;;;4335820;32;319433;-70
2024/03/17 04:09:42;;;;;;;34.43;20.07;;;;;;;;;;4327843;32;319535;-71
2024/03/17 04:12:09;;;;;;;38.67;21.50;;;;;;;;;;4336999;32;319379;-70
2024/03/17 04:14:36;;;;;;;41.93;23.23;;;;;;;;;;4337572;32;319556;-70
2024/03/17 04:17:03;;;;;;;30.83;20.07;;;;;;;;;;4325900;32;319421;-69
2024/03/17 04:19:30;;;;;;;37.63;19.33;;;;;;;;;;4337563;32;319354;-70
2024/03/17 04:21:57;;;;;;;34.70;19.87;;;;;;;;;;4327903;32;318656;-70
2024/03/17 04:24:25;;;;;;;36.80;23.67;;;;;;;;;;4336498;32;319355;-71
2024/03/17 04:26:52;;;;;;;40.77;22.20;;;;;;;;;;4325847;32;319453;-71
2024/03/17 04:29:20;;;;;;;35.20;23.70;;;;;;;;;;4337692;32;319355;-70
2024/03/17 04:31:48;;;;;;;35.27;22.20;;;;;;;;;;4326661;32;319622;-70
2024/03/17 04:34:16;;;;;;;38.13;21.47;;;;;;;;;;4337513;32;324287;-70
2024/03/17 04:36:42;;;;;;;40.03;23.40;;;;;;;;;;4327866;32;319501;-73
2024/03/17 04:39:09;;;;;;;35.83;23.87;;;;;;;;;;4333675;32;319581;-70
2024/03/17 04:41:40;;;;;;;35.43;22.40;;;;;;;;;;4336725;32;319306;-70
2024/03/17 04:44:07;;;;;;;33.17;21.77;;;;;;;;;;4323418;32;419016;-70
2024/03/17 04:46:33;;;;;;;36.60;23.10;;;;;;;;;;4336617;32;319541;-70
2024/03/17 04:49:00;;;;;;;37.67;24.63;;;;;;;;;;4325357;32;346662;-69
2024/03/17 04:51:26;;;;;;;48.77;26.53;;;;;;;;;;4336359;32;319492;-70
2024/03/17 04:53:56;;;;;;;39.13;24.23;;;;;;;;;;4326501;32;319355;-70
2024/03/17 04:56:23;;;;;;;37.30;22.77;;;;;;;;;;4337419;32;319472;-71
2024/03/17 04:58:50;;;;;;;38.00;24.93;;;;;;;;;;4327208;32;319516;-71
2024/03/17 05:01:17;;;;;;;30.67;19.17;;;;;;;;;;4336342;32;353168;-71
2024/03/17 05:03:44;;;;;;;29.37;18.53;;;;;;;;;;4326484;32;362313;-71
2024/03/17 05:06:11;;;;;;;29.47;18.47;;;;;;;;;;4337536;32;319343;-71
2024/03/17 05:08:38;;;;;;;27.97;18.17;;;;;;;;;;4336705;32;319400;-70
2024/03/17 05:11:06;;;;;;;28.07;18.03;;;;;;;;;;4311950;32;319336;-69
2024/03/17 05:13:33;;;;;;;48.40;26.13;;;;;;;;;;4337159;32;319311;-70
2024/03/17 05:16:03;;;;;;;39.83;24.67;;;;;;;;;;4325731;32;318833;-70
2024/03/17 05:18:32;;;;;;;37.20;22.73;;;;;;;;;;4336977;32;319417;-72
2024/03/17 05:20:59;;;;;;;32.53;21.13;;;;;;;;;;4324105;32;324811;-72
2024/03/17 05:23:27;;;;;;;33.13;19.77;;;;;;;;;;4337059;32;319518;-70
2024/03/17 05:25:54;;;;;;;31.70;19.63;;;;;;;;;;4326154;32;319595;-70
2024/03/17 05:28:21;;;;;;;27.30;20.77;;;;;;;;;;4335653;32;318688;-69
2024/03/17 05:30:50;;;;;;;32.80;22.27;;;;;;;;;;4326739;32;319540;-69
2024/03/17 05:33:19;;;;;;;31.57;22.03;;;;;;;;;;4337413;32;319284;-70
2024/03/17 05:35:52;;;;;;;37.43;23.83;;;;;;;;;;4326907;32;319187;-71
2024/03/17 05:38:19;;;;;;;33.60;22.10;;;;;;;;;;4337564;32;319374;-69
2024/03/17 05:40:53;;;;;;;40.93;24.13;;;;;;;;;;4327289;32;319273;-69
2024/03/17 05:43:20;;;;;;;41.80;26.27;;;;;;;;;;4335987;32;319180;-71
2024/03/17 05:45:47;;;;;;;35.47;25.77;;;;;;;;;;4327328;32;319381;-70
2024/03/17 05:48:18;;;;;;;37.93;25.00;;;;;;;;;;4336429;32;318858;-70
2024/03/17 05:50:45;;;;;;;29.10;20.30;;;;;;;;;;4327495;32;319358;-70
2024/03/17 05:53:11;;;;;;;23.87;18.47;;;;;;;;;;4336895;32;319412;-70
2024/03/17 05:55:40;;;;;;;24.43;16.70;;;;;;;;;;4338966;32;331706;-70
2024/03/17 05:58:08;;;;;;;26.13;16.43;;;;;;;;;;4327252;32;418189;-70
2024/03/17 06:00:35;;;;;;;24.10;14.97;;;;;;;;;;4338395;32;322152;-69
2024/03/17 06:03:02;;;;;;;19.97;14.07;;;;;;;;;;4326050;32;323527;-70
2024/03/17 06:05:34;;;;;;;20.10;13.10;;;;;;;;;;4339289;32;319289;-70
2024/03/17 06:08:02;;;;;;;23.37;13.43;;;;;;;;;;4328453;32;319332;-70
2024/03/17 06:10:28;;;;;;;34.10;23.17;;;;;;;;;;4338154;32;319426;-71
2024/03/17 06:12:56;;;;;;;36.17;23.43;;;;;;;;;;4326163;32;319334;-71
2024/03/17 06:15:23;;;;;;;39.10;24.73;;;;;;;;;;4338441;32;319625;-72
2024/03/17 06:17:51;;;;;;;37.47;23.40;;;;;;;;;;4329893;32;319538;-71
2024/03/17 06:20:18;;;;;;;34.10;20.33;;;;;;;;;;4339626;32;319545;-72
2024/03/17 06:22:48;;;;;;;46.47;22.03;;;;;;;;;;4329595;32;319173;-72
2024/03/17 06:25:15;;;;;;;31.87;18.23;;;;;;;;;;4336060;32;319315;-70
2024/03/17 06:27:43;;;;;;;27.97;16.20;;;;;;;;;;4328574;32;319901;-70
2024/03/17 06:30:13;;;;;;;22.53;15.23;;;;;;;;;;4337855;32;319535;-71
2024/03/17 06:32:41;;;;;;;24.07;16.70;;;;;;;;;;4339123;32;319221;-72
2024/03/17 06:35:08;;;;;;;28.30;15.90;;;;;;;;;;4323511;32;418165;-70
2024/03/17 06:37:35;;;;;;;22.03;15.53;;;;;;;;;;4338854;32;319202;-70
2024/03/17 06:40:04;;;;;;;24.20;14.53;;;;;;;;;;4329320;32;319254;-71
2024/03/17 06:42:31;;;;;;;21.70;14.73;;;;;;;;;;4338510;32;318786;-71
2024/03/17 06:44:57;;;;;;;20.27;13.30;;;;;;;;;;4325376;32;319171;-71
2024/03/17 06:47:25;;;;;;;20.73;13.70;;;;;;;;;;4337833;32;319579;-70
2024/03/17 06:49:52;;;;;;;24.40;14.00;;;;;;;;;;4328851;32;319544;-71
2024/03/17 06:52:18;;;;;;;23.23;13.30;;;;;;;;;;4337775;32;319247;-71
2024/03/17 06:54:49;;;;;;;24.67;15.00;;;;;;;;;;4326597;32;325686;-71
2024/03/17 06:57:17;;;;;;;20.90;15.10;;;;;;;;;;4339128;32;319618;-72
2024/03/17 06:59:45;;;;;;;27.33;17.67;;;;;;;;;;4328884;32;319368;-71
2024/03/17 07:02:15;;;;;;;32.13;24.43;;;;;;;;;;4337540;32;325234;-70
2024/03/17 07:04:42;;;;;;;21.63;15.00;;;;;;;;;;4328771;32;319367;-70
2024/03/17 07:07:09;;;;;;;24.50;15.33;;;;;;;;;;4336526;32;319629;-72
2024/03/17 07:09:36;;;;;;;20.00;16.10;;;;;;;;;;4338564;32;319448;-70
2024/03/17 07:12:03;;;;;;;22.93;13.30;;;;;;;;;;4327923;32;319422;-70
2024/03/17 07:14:34;;;;;;;17.50;13.90;;;;;;;;;;4337284;32;318557;-70
2024/03/17 07:17:01;;;;;;;19.97;14.13;;;;;;;;;;4326750;32;319304;-72
2024/03/17 07:19:28;;;;;;;25.57;14.20;;;;;;;;;;4337739;32;319491;-70
2024/03/17 07:21:55;;;;;;;21.63;12.90;;;;;;;;;;4328442;32;319445;-70
2024/03/17 07:24:22;;;;;;;18.80;12.50;;;;;;;;;;4337381;32;319417;-70
2024/03/17 07:26:49;;;;;;;19.27;14.13;;;;;;;;;;4325487;32;348940;-72
2024/03/17 07:29:16;;;;;;;19.13;13.87;;;;;;;;;;4336813;32;319403;-70
2024/03/17 07:31:44;;;;;;;15.20;11.87;;;;;;;;;;4328499;32;319474;-70
2024/03/17 07:34:11;;;;;;;17.37;12.70;;;;;;;;;;4338296;32;318595;-70
2024/03/17 07:36:39;;;;;;;16.53;11.93;;;;;;;;;;4338437;32;319387;-70
2024/03/17 07:39:07;;;;;;;15.90;10.53;;;;;;;;;;4325187;32;318817;-74
2024/03/17 07:41:33;;;;;;;17.57;12.40;;;;;;;;;;4337367;32;319371;-71
2024/03/17 07:44:00;;;;;;;19.63;13.00;;;;;;;;;;4328719;32;319600;-70
2024/03/17 07:46:27;;;;;;;18.57;12.17;;;;;;;;;;4338266;32;318508;-71
2024/03/17 07:48:55;;;;;;;19.40;14.07;;;;;;;;;;4324896;32;319413;-70
2024/03/17 07:51:23;;;;;;;25.40;17.00;;;;;;;;;;4338316;32;319624;-71
2024/03/17 07:53:50;;;;;;;29.03;18.47;;;;;;;;;;4327264;32;319436;-72
2024/03/17 07:56:17;;;;;;;26.17;17.93;;;;;;;;;;4336688;32;318476;-70
2024/03/17 07:58:45;;;;;;;18.40;15.50;;;;;;;;;;4327763;32;319491;-71
2024/03/17 08:01:13;;;;;;;26.73;17.63;;;;;;;;;;4334446;32;319382;-70
2024/03/17 08:03:43;;;;;;;29.07;18.43;;;;;;;;;;4337583;32;319521;-70
2024/03/17 08:06:12;;;;;;;26.03;17.20;;;;;;;;;;4325313;32;417459;-71
2024/03/17 08:08:39;;;;;;;23.67;18.00;;;;;;;;;;4336648;32;319428;-70
2024/03/17 08:11:06;;;;;;;27.77;18.53;;;;;;;;;;4323269;32;319340;-71
2024/03/17 08:13:34;;;;;;;31.50;18.97;;;;;;;;;;4336854;32;319441;-72
2024/03/17 08:16:03;;;;;;;27.87;19.57;;;;;;;;;;4327959;32;318655;-71
2024/03/17 08:18:30;;;;;;;29.93;17.70;;;;;;;;;;4337416;32;319359;-71
2024/03/17 08:20:57;;;;;;;27.80;18.47;;;;;;;;;;4324367;32;319281;-71
2024/03/17 08:23:25;;;;;;;30.27;16.97;;;;;;;;;;4336868;32;319383;-71
2024/03/17 08:25:58;;;;;;;25.77;17.50;;;;;;;;;;4326563;32;319310;-71
2024/03/17 08:28:26;;;;;;;25.70;17.37;;;;;;;;;;4328363;32;319235;-71
2024/03/17 08:30:54;;;;;;;30.03;16.17;;;;;;;;;;4324061;32;319372;-70
2024/03/17 08:33:22;;;;;;;26.63;15.90;;;;;;;;;;4336628;32;319312;-71
2024/03/17 08:35:59;;;;;;;19.23;13.17;;;;;;;;;;4327660;32;319649;-71
2024/03/17 08:38:29;;;;;;;16.63;12.50;;;;;;;;;;4337214;32;319426;-71
2024/03/17 08:40:56;;;;;;;11.33;7.97;;;;;;;;;;4324167;32;319316;-71
2024/03/17 08:43:24;;;;;;;13.70;7.70;;;;;;;;;;4337629;32;318334;-71
2024/03/17 08:45:58;;;;;;;9.90;7.40;;;;;;;;;;4326364;32;317739;-71
2024/03/17 08:48:25;;;;;;;11.43;7.47;;;;;;;;;;4337017;32;316691;-71
2024/03/17 08:50:53;;;;;;;14.20;9.50;;;;;;;;;;4325340;32;318542;-71
2024/03/17 08:53:19;;;;;;;30.73;17.77;;;;;;;;;;4337116;32;328406;-72
2024/03/17 08:55:48;;;;;;;21.87;12.90;;;;;;;;;;4327253;32;319701;-70
2024/03/17 08:58:15;;;;;;;14.93;7.80;;;;;;;;;;4336019;32;329657;-69
2024/03/17 09:00:42;;;;;;;19.53;12.90;;;;;;;;;;4332227;32;318353;-70
2024/03/17 09:03:10;;;;;;;13.13;8.43;;;;;;;;;;4335213;32;318581;-74
2024/03/17 09:05:37;;;;;;;13.37;7.33;;;;;;;;;;4336122;32;317403;-71
2024/03/17 09:08:04;;;;;;;9.17;5.97;;;;;;;;;;4326585;32;318161;-72
2024/03/17 09:10:31;;;;;;;17.73;12.30;;;;;;;;;;4336197;32;317335;-73
2024/03/17 09:12:59;;;;;;;14.70;8.40;;;;;;;;;;4324271;32;351555;-71
2024/03/17 09:15:26;;;;;;;7.40;5.87;;;;;;;;;;4335996;32;318392;-73
2024/03/17 09:17:52;;;;;;;8.77;6.17;;;;;;;;;;4326733;32;325036;-71
2024/03/17 09:20:19;;;;;;;8.73;5.10;;;;;;;;;;4337130;32;316877;-71
2024/03/17 09:22:46;;;;;;;8.27;4.73;;;;;;;;;;4327690;32;317321;-71
2024/03/17 09:25:14;;;;;;;6.10;4.87;;;;;;;;;;4333815;32;316492;-71
2024/03/17 09:27:41;;;;;;;5.67;4.40;;;;;;;;;;4340345;32;317341;-72
2024/03/17 09:30:11;;;;;;;5.80;4.80;;;;;;;;;;4326321;32;416601;-72
2024/03/17 09:32:38;;;;;;;6.90;5.13;;;;;;;;;;4338757;32;316879;-71
2024/03/17 09:35:05;;;;;;;9.57;4.50;;;;;;;;;;4328054;32;317166;-71
2024/03/17 09:37:32;;;;;;;10.20;4.77;;;;;;;;;;4340117;32;317342;-71
2024/03/17 09:40:00;;;;;;;5.97;4.73;;;;;;;;;;4330410;32;318381;-73
2024/03/17 09:42:28;;;;;;;9.83;6.13;;;;;;;;;;4340262;32;317417;-71
2024/03/17 09:44:56;;;;;;;23.07;13.63;;;;;;;;;;4326987;32;317421;-71
2024/03/17 09:47:26;;;;;;;12.67;7.80;;;;;;;;;;4339186;32;319299;-73
2024/03/17 09:49:53;;;;;;;6.80;5.40;;;;;;;;;;4328604;32;318364;-72
2024/03/17 09:52:22;;;;;;;6.00;4.70;;;;;;;;;;4338883;32;316683;-71
2024/03/17 09:54:55;;;;;;;11.93;6.00;;;;;;;;;;4322332;32;317344;-72
2024/03/17 09:57:24;;;;;;;6.57;4.90;;;;;;;;;;4338757;32;318896;-73
2024/03/17 09:59:53;;;;;;;10.07;6.00;;;;;;;;;;4329854;32;316574;-72
2024/03/17 10:02:20;;;;;;;8.43;6.23;;;;;;;;;;4339426;32;317876;-72
2024/03/17 10:04:48;;;;;;;8.40;5.10;;;;;;;;;;4330291;32;317123;-70
2024/03/17 10:07:15;;;;;;;6.85;4.50;;;;;;;;;;4337839;32;317695;-71
2024/03/17 10:09:44;;;;;;;6.00;5.30;;;;;;;;;;4329337;32;317203;-72
2024/03/17 10:12:27;;;;;;;7.93;5.30;;;;;;;;;;4339135;32;321181;-71
2024/03/17 10:15:00;;;;;;;8.63;6.28;;;;;;;;;;4324997;32;316724;-71
2024/03/17 10:17:34;;;;;;;8.77;6.00;;;;;;;;;;4337437;32;344623;-71
2024/03/17 10:20:17;;;;;;;8.20;4.50;;;;;;;;;;4329692;32;317300;-72
2024/03/17 10:23:03;;;;;;;10.57;5.57;;;;;;;;;;4329511;32;317193;-71
2024/03/17 10:25:31;;;;;;;10.90;5.90;;;;;;;;;;4339364;32;318168;-72
2024/03/17 10:27:58;;;;;;;10.13;6.07;;;;;;;;;;4329387;32;318272;-72
2024/03/17 10:30:28;;;;;;;7.97;5.45;;;;;;;;;;4339054;32;318433;-71
2024/03/17 10:32:56;;;;;;;7.70;5.27;;;;;;;;;;4325568;32;352569;-70
2024/03/17 10:35:29;;;;;;;6.90;4.63;;;;;;;;;;4329668;32;326414;-70
2024/03/17 10:37:58;;;;;;;6.97;4.77;;;;;;;;;;4327879;32;317260;-70
2024/03/17 10:40:26;;;;;;;10.33;6.27;;;;;;;;;;4338083;32;317219;-71
2024/03/17 10:42:53;;;;;;;7.10;5.10;;;;;;;;;;4326401;32;318825;-69
2024/03/17 10:45:21;;;;;;;8.75;5.00;;;;;;;;;;4337746;32;317312;-72
2024/03/17 10:47:50;;;;;;;6.57;5.00;;;;;;;;;;4328205;32;317528;-70
2024/03/17 10:50:19;;;;;;;5.97;4.05;;;;;;;;;;4338257;32;317419;-70
2024/03/17 10:52:51;;;;;;;6.95;5.07;;;;;;;;;;4329168;32;317325;-70
2024/03/17 10:55:25;;;;;;;6.78;5.05;;;;;;;;;;4339219;32;317639;-72
2024/03/17 10:57:53;;;;;;;7.27;5.27;;;;;;;;;;4327066;32;341404;-71
2024/03/17 11:00:21;;;;;;;7.62;5.70;;;;;;;;;;4338671;32;316695;-71
2024/03/17 11:02:50;;;;;;;14.48;7.97;;;;;;;;;;4329343;32;317413;-71
2024/03/17 11:05:20;;;;;;;11.53;5.33;;;;;;;;;;4338166;32;318565;-71
2024/03/17 11:07:50;;;;;;;6.00;4.67;;;;;;;;;;4329292;32;318596;-70
2024/03/17 11:10:21;;;;;;;6.35;4.28;;;;;;;;;;4338175;32;317919;-71
2024/03/17 11:12:50;;;;;;;6.82;4.55;;;;;;;;;;4329002;32;317315;-71
2024/03/17 11:15:51;;;;;;;4.72;4.28;;;;;;;;;;4335705;32;317305;-71
2024/03/17 11:18:45;;;;;;;8.25;4.53;;;;;;;;;;4324475;32;418787;-71
2024/03/17 11:21:22;;;;;;;9.65;4.32;;;;;;;;;;4324016;32;418103;-70
2024/03/17 11:24:03;;;;;;;11.48;5.72;;;;;;;;;;4328061;32;317487;-72
2024/03/17 11:26:32;;;;;;;7.62;5.97;;;;;;;;;;4338156;32;318533;-71
2024/03/17 11:29:06;;;;;;;5.55;4.40;;;;;;;;;;4325573;32;317692;-72
2024/03/17 11:31:43;;;;;;;6.75;4.07;;;;;;;;;;4338763;32;317561;-71
2024/03/17 11:34:36;;;;;;;9.57;5.78;;;;;;;;;;4326169;32;417163;-71
2024/03/17 11:37:04;;;;;;;5.70;4.20;;;;;;;;;;4326723;32;317462;-71
2024/03/17 11:39:51;;;;;;;4.95;4.35;;;;;;;;;;4338116;32;317477;-71
2024/03/17 11:42:17;;;;;;;7.10;4.97;;;;;;;;;;4326048;32;417511;-71
2024/03/17 11:44:45;;;;;;;5.10;4.00;;;;;;;;;;4328746;32;317541;-75
2024/03/17 11:47:11;;;;;;;8.57;5.20;;;;;;;;;;4334375;32;316657;-71
2024/03/17 11:49:38;;;;;;;5.45;4.03;;;;;;;;;;4337023;32;317441;-71
2024/03/17 11:52:08;;;;;;;7.00;4.82;;;;;;;;;;4328423;32;317559;-72
2024/03/17 11:54:37;;;;;;;11.02;4.65;;;;;;;;;;4337260;32;317561;-71
2024/03/17 11:57:06;;;;;;;5.60;4.10;;;;;;;;;;4324250;32;339021;-73
2024/03/17 11:59:33;;;;;;;7.60;4.85;;;;;;;;;;4336488;32;317326;-71
2024/03/17 12:02:00;;;;;;;8.45;6.25;;;;;;;;;;4327377;32;317410;-71
2024/03/17 12:04:27;;;;;;;5.78;4.60;;;;;;;;;;4338019;32;317497;-71
2024/03/17 12:06:55;;;;;;;8.57;5.72;;;;;;;;;;4325647;32;317486;-72
2024/03/17 12:09:24;;;;;;;8.00;5.57;;;;;;;;;;4336850;32;320200;-71
2024/03/17 12:11:51;;;;;;;9.60;7.53;;;;;;;;;;4328169;32;317521;-70
2024/03/17 12:14:20;;;;;;;8.88;5.43;;;;;;;;;;4337648;32;317566;-72
2024/03/17 12:16:48;;;;;;;7.30;5.65;;;;;;;;;;4328477;32;317614;-71
2024/03/17 12:19:16;;;;;;;8.23;6.00;;;;;;;;;;4334181;32;317807;-72
2024/03/17 12:21:44;;;;;;;10.13;6.62;;;;;;;;;;4325094;32;328126;-74
2024/03/17 12:24:16;;;;;;;8.93;6.15;;;;;;;;;;4336281;32;318618;-73
2024/03/17 12:26:43;;;;;;;7.85;6.05;;;;;;;;;;4327828;32;336136;-75
2024/03/17 12:29:27;;;;;;;6.85;5.45;;;;;;;;;;4335837;32;317375;-72
2024/03/17 12:31:55;;;;;;;10.15;7.10;;;;;;;;;;4326729;32;317316;-71
2024/03/17 12:34:27;;;;;;;20.20;5.70;;;;;;;;;;4337583;32;318427;-71
2024/03/17 12:36:54;;;;;;;5.93;4.50;;;;;;;;;;4324630;32;318303;-71
2024/03/17 12:39:22;;;;;;;8.93;5.85;;;;;;;;;;4337368;32;316868;-73
2024/03/17 12:42:05;;;;;;;9.48;6.65;;;;;;;;;;4326797;32;317482;-72
2024/03/17 12:44:34;;;;;;;11.27;7.75;;;;;;;;;;4335934;32;335971;-74
2024/03/17 12:47:01;;;;;;;8.27;5.83;;;;;;;;;;4324151;32;318406;-72
2024/03/17 12:49:29;;;;;;;6.43;5.47;;;;;;;;;;4336416;32;317685;-72
2024/03/17 12:51:55;;;;;;;19.77;12.85;;;;;;;;;;4327273;32;317926;-73
2024/03/17 12:54:24;;;;;;;11.00;8.38;;;;;;;;;;4336380;32;319386;-72
2024/03/17 13:02:28;;;;;;;6.28;5.35;;;;;;;;;;4323920;32;387965;-73
2024/03/17 13:05:12;;;;;;;7.07;5.72;;;;;;;;;;4325509;32;317632;-73
2024/03/17 13:07:39;;;;;;;10.30;6.18;;;;;;;;;;4334216;32;317259;-73
2024/03/17 13:10:07;;;;;;;7.57;5.93;;;;;;;;;;4326029;32;348183;-72
2024/03/17 13:12:34;;;;;;;9.52;6.53;;;;;;;;;;4335280;32;317141;-72
2024/03/17 13:15:03;;;;;;;7.87;6.72;;;;;;;;;;4323466;32;317778;-73
2024/03/17 13:17:30;;;;;;;9.00;6.27;;;;;;;;;;4337418;32;317557;-73
2024/03/17 13:19:57;;;;;;;8.18;5.15;;;;;;;;;;4326185;32;317369;-72
2024/03/17 13:22:24;;;;;;;13.62;8.98;;;;;;;;;;4335233;32;339839;-73
2024/03/17 13:24:51;;;;;;;7.45;6.03;;;;;;;;;;4325144;32;341327;-71
2024/03/17 13:27:18;;;;;;;6.83;5.10;;;;;;;;;;4335503;32;335415;-72
2024/03/17 13:29:48;;;;;;;9.77;6.80;;;;;;;;;;4326943;32;317395;-73
2024/03/17 13:32:17;;;;;;;10.60;7.32;;;;;;;;;;4337465;32;317671;-74
2024/03/17 13:34:44;;;;;;;7.18;5.30;;;;;;;;;;4324386;32;347642;-72
2024/03/17 13:37:11;;;;;;;11.40;5.45;;;;;;;;;;4334023;32;317355;-73
2024/03/17 13:39:37;;;;;;;7.10;5.45;;;;;;;;;;4337176;32;318650;-74
2024/03/17 13:42:05;;;;;;;6.90;5.32;;;;;;;;;;4327784;32;317310;-72
2024/03/17 13:44:31;;;;;;;10.13;6.43;;;;;;;;;;4336915;32;317545;-71
2024/03/17 13:46:58;;;;;;;7.82;5.30;;;;;;;;;;4325174;32;318405;-73
2024/03/17 13:49:28;;;;;;;9.38;5.70;;;;;;;;;;4337551;32;317310;-73
2024/03/17 13:51:55;;;;;;;6.57;5.12;;;;;;;;;;4327154;32;317521;-72
2024/03/17 13:54:22;;;;;;;7.72;5.68;;;;;;;;;;4336296;32;317486;-72
2024/03/17 13:56:49;;;;;;;8.35;5.78;;;;;;;;;;4326772;32;316566;-72
2024/03/17 13:59:16;;;;;;;6.30;5.65;;;;;;;;;;4334076;32;317318;-72
2024/03/17 14:01:44;;;;;;;6.25;4.12;;;;;;;;;;4324733;32;317428;-72
2024/03/17 14:04:14;;;;;;;6.00;5.37;;;;;;;;;;4337253;32;318348;-72
2024/03/17 14:06:43;;;;;;;10.50;9.02;;;;;;;;;;4335974;32;317403;-72
2024/03/17 14:09:12;;;;;;;9.02;7.45;;;;;;;;;;4321948;32;417589;-73
2024/03/17 14:11:39;;;;;;;10.43;7.03;;;;;;;;;;4335790;32;317320;-73
2024/03/17 14:14:07;;;;;;;6.93;5.55;;;;;;;;;;4328759;32;317543;-72
2024/03/17 14:16:34;;;;;;;7.57;6.47;;;;;;;;;;4338428;32;317366;-71
2024/03/17 14:19:01;;;;;;;8.10;6.60;;;;;;;;;;4326404;32;317345;-73
2024/03/17 14:21:28;;;;;;;14.52;8.55;;;;;;;;;;4339856;32;318023;-73
2024/03/17 14:23:57;;;;;;;9.35;8.00;;;;;;;;;;4328855;32;318339;-72
2024/03/17 14:26:24;;;;;;;12.25;9.00;;;;;;;;;;4339449;32;317657;-71
2024/03/17 14:28:51;;;;;;;11.00;9.40;;;;;;;;;;4328020;32;318693;-71